sensor_id;sensor_type;location;lat;lon;timestamp;temperature;humidity
19813;DHT22;10066;48.108;11.448;2022-09-27T00:01:23;11.50;99.90
19813;DHT22;10066;48.108;11.448;2022-09-27T00:03:52;11.50;99.90
19813;DHT22;10066;48.108;11.448;2022-09-27T00:06:23;11.50;99.90
19813;DHT22;10066;48.108;11.448;2022-09-27T00:08:51;11.50;99.90
19813;DHT22;10066;48.108;11.448;2022-09-27T00:11:23;11.50;99.90
19813;DHT22;10066;48.108;11.448;2022-09-27T00:13:52;11.50;99.90
19813;DHT22;10066;48.108;11.448;2022-09-27T00:16:20;11.50;99.90
19813;DHT22;10066;48.108;11.448;2022-09-27T00:18:48;11.50;99.90
19813;DHT22;10066;48.108;11.448;2022-09-27T00:21:15;11.50;99.90
19813;DHT22;10066;48.108;11.448;2022-09-27T00:23:43;11.50;99.90
19813;DHT22;10066;48.108;11.448;2022-09-27T00:26:12;11.50;99.90
19813;DHT22;10066;48.108;11.448;2022-09-27T00:28:39;11.50;99.90
19813;DHT22;10066;48.108;11.448;2022-09-27T00:31:16;11.50;99.90
19813;DHT22;10066;48.108;11.448;2022-09-27T00:33:45;11.50;99.90
19813;DHT22;10066;48.108;11.448;2022-09-27T00:36:12;11.50;99.90
19813;DHT22;10066;48.108;11.448;2022-09-27T00:38:39;11.50;99.90
19813;DHT22;10066;48.108;11.448;2022-09-27T00:41:08;11.50;99.90
19813;DHT22;10066;48.108;11.448;2022-09-27T00:43:46;11.40;99.90
19813;DHT22;10066;48.108;11.448;2022-09-27T00:46:20;11.40;99.90
19813;DHT22;10066;48.108;11.448;2022-09-27T00:48:59;11.40;99.90
19813;DHT22;10066;48.108;11.448;2022-09-27T00:51:28;11.40;99.90
19813;DHT22;10066;48.108;11.448;2022-09-27T00:53:56;11.40;99.90
19813;DHT22;10066;48.108;11.448;2022-09-27T00:56:28;11.40;99.90
19813;DHT22;10066;48.108;11.448;2022-09-27T00:59:00;11.30;99.90
19813;DHT22;10066;48.108;11.448;2022-09-27T01:01:29;11.30;99.90
19813;DHT22;10066;48.108;11.448;2022-09-27T01:03:59;11.30;99.90
19813;DHT22;10066;48.108;11.448;2022-09-27T01:06:27;11.30;99.90
19813;DHT22;10066;48.108;11.448;2022-09-27T01:08:54;11.30;99.90
19813;DHT22;10066;48.108;11.448;2022-09-27T01:11:40;11.20;99.90
19813;DHT22;10066;48.108;11.448;2022-09-27T01:14:40;11.20;99.90
19813;DHT22;10066;48.108;11.448;2022-09-27T01:17:25;11.20;99.90
19813;DHT22;10066;48.108;11.448;2022-09-27T01:23:07;11.10;99.90
19813;DHT22;10066;48.108;11.448;2022-09-27T01:25:54;11.10;99.90
19813;DHT22;10066;48.108;11.448;2022-09-27T01:28:40;11.00;99.90
19813;DHT22;10066;48.108;11.448;2022-09-27T01:31:20;11.00;99.90
19813;DHT22;10066;48.108;11.448;2022-09-27T01:33:55;11.00;99.90
19813;DHT22;10066;48.108;11.448;2022-09-27T01:36:33;11.00;99.90
19813;DHT22;10066;48.108;11.448;2022-09-27T01:39:10;11.00;99.90
19813;DHT22;10066;48.108;11.448;2022-09-27T01:41:45;10.90;99.90
19813;DHT22;10066;48.108;11.448;2022-09-27T01:44:19;10.90;99.90
19813;DHT22;10066;48.108;11.448;2022-09-27T01:46:51;10.90;99.90
19813;DHT22;10066;48.108;11.448;2022-09-27T01:49:25;10.90;99.90
19813;DHT22;10066;48.108;11.448;2022-09-27T01:51:57;10.90;99.90
19813;DHT22;10066;48.108;11.448;2022-09-27T01:54:31;10.90;99.90
19813;DHT22;10066;48.108;11.448;2022-09-27T01:57:02;10.90;99.90
19813;DHT22;10066;48.108;11.448;2022-09-27T01:59:34;10.90;99.90
19813;DHT22;10066;48.108;11.448;2022-09-27T02:04:41;10.90;99.90
19813;DHT22;10066;48.108;11.448;2022-09-27T02:07:14;10.90;99.90
19813;DHT22;10066;48.108;11.448;2022-09-27T02:09:47;10.90;99.90
19813;DHT22;10066;48.108;11.448;2022-09-27T02:12:17;10.90;99.90
19813;DHT22;10066;48.108;11.448;2022-09-27T02:14:47;10.90;99.90
19813;DHT22;10066;48.108;11.448;2022-09-27T02:17:22;10.80;99.90
19813;DHT22;10066;48.108;11.448;2022-09-27T02:20:00;10.80;99.90
19813;DHT22;10066;48.108;11.448;2022-09-27T02:22:33;10.80;99.90
19813;DHT22;10066;48.108;11.448;2022-09-27T02:25:08;10.80;99.90
19813;DHT22;10066;48.108;11.448;2022-09-27T02:27:41;10.70;99.90
19813;DHT22;10066;48.108;11.448;2022-09-27T02:30:12;10.70;99.90
19813;DHT22;10066;48.108;11.448;2022-09-27T02:32:40;10.70;99.90
19813;DHT22;10066;48.108;11.448;2022-09-27T02:35:16;10.70;99.90
19813;DHT22;10066;48.108;11.448;2022-09-27T02:37:44;10.60;99.90
19813;DHT22;10066;48.108;11.448;2022-09-27T02:40:12;10.60;99.90
19813;DHT22;10066;48.108;11.448;2022-09-27T02:42:40;10.60;99.90
19813;DHT22;10066;48.108;11.448;2022-09-27T02:45:09;10.60;99.90
19813;DHT22;10066;48.108;11.448;2022-09-27T02:48:01;10.60;99.90
19813;DHT22;10066;48.108;11.448;2022-09-27T02:51:01;10.50;99.90
19813;DHT22;10066;48.108;11.448;2022-09-27T02:53:37;10.50;99.90
19813;DHT22;10066;48.108;11.448;2022-09-27T02:56:12;10.50;99.90
19813;DHT22;10066;48.108;11.448;2022-09-27T02:58:51;10.50;99.90
19813;DHT22;10066;48.108;11.448;2022-09-27T03:01:26;10.50;99.90
19813;DHT22;10066;48.108;11.448;2022-09-27T03:04:01;10.50;99.90
19813;DHT22;10066;48.108;11.448;2022-09-27T03:06:32;10.50;99.90
19813;DHT22;10066;48.108;11.448;2022-09-27T03:08:59;10.50;99.90
19813;DHT22;10066;48.108;11.448;2022-09-27T03:11:26;10.50;99.90
19813;DHT22;10066;48.108;11.448;2022-09-27T03:13:53;10.50;99.90
19813;DHT22;10066;48.108;11.448;2022-09-27T03:16:21;10.40;99.90
19813;DHT22;10066;48.108;11.448;2022-09-27T03:18:48;10.50;99.90
19813;DHT22;10066;48.108;11.448;2022-09-27T03:21:15;10.50;99.90
19813;DHT22;10066;48.108;11.448;2022-09-27T03:23:43;10.50;99.90
19813;DHT22;10066;48.108;11.448;2022-09-27T03:26:11;10.50;99.90
19813;DHT22;10066;48.108;11.448;2022-09-27T03:28:38;10.50;99.90
19813;DHT22;10066;48.108;11.448;2022-09-27T03:31:05;10.50;99.90
19813;DHT22;10066;48.108;11.448;2022-09-27T03:33:32;10.50;99.90
19813;DHT22;10066;48.108;11.448;2022-09-27T03:36:00;10.50;99.90
19813;DHT22;10066;48.108;11.448;2022-09-27T03:38:28;10.50;99.90
19813;DHT22;10066;48.108;11.448;2022-09-27T03:40:56;10.50;99.90
19813;DHT22;10066;48.108;11.448;2022-09-27T03:43:24;10.50;99.90
19813;DHT22;10066;48.108;11.448;2022-09-27T03:45:51;10.60;99.90
19813;DHT22;10066;48.108;11.448;2022-09-27T03:48:18;10.50;99.90
19813;DHT22;10066;48.108;11.448;2022-09-27T03:50:45;10.50;99.90
19813;DHT22;10066;48.108;11.448;2022-09-27T03:53:12;10.50;99.90
19813;DHT22;10066;48.108;11.448;2022-09-27T03:55:39;10.60;99.90
19813;DHT22;10066;48.108;11.448;2022-09-27T03:58:08;10.50;99.90
19813;DHT22;10066;48.108;11.448;2022-09-27T04:00:35;10.50;99.90
19813;DHT22;10066;48.108;11.448;2022-09-27T04:03:02;10.60;99.90
19813;DHT22;10066;48.108;11.448;2022-09-27T04:05:29;10.60;99.90
19813;DHT22;10066;48.108;11.448;2022-09-27T04:07:57;10.60;99.90
19813;DHT22;10066;48.108;11.448;2022-09-27T04:10:25;10.60;99.90
19813;DHT22;10066;48.108;11.448;2022-09-27T04:12:52;10.60;99.90
19813;DHT22;10066;48.108;11.448;2022-09-27T04:15:21;10.60;99.90
19813;DHT22;10066;48.108;11.448;2022-09-27T04:17:48;10.60;99.90
19813;DHT22;10066;48.108;11.448;2022-09-27T04:20:15;10.60;99.90
19813;DHT22;10066;48.108;11.448;2022-09-27T04:22:43;10.60;99.90
19813;DHT22;10066;48.108;11.448;2022-09-27T04:25:11;10.60;99.90
19813;DHT22;10066;48.108;11.448;2022-09-27T04:27:42;10.60;99.90
19813;DHT22;10066;48.108;11.448;2022-09-27T04:30:10;10.60;99.90
19813;DHT22;10066;48.108;11.448;2022-09-27T04:32:41;10.60;99.90
19813;DHT22;10066;48.108;11.448;2022-09-27T04:35:09;10.60;99.90
19813;DHT22;10066;48.108;11.448;2022-09-27T04:37:54;10.50;99.90
19813;DHT22;10066;48.108;11.448;2022-09-27T04:40:21;10.50;99.90
19813;DHT22;10066;48.108;11.448;2022-09-27T04:42:49;10.40;99.90
19813;DHT22;10066;48.108;11.448;2022-09-27T04:45:16;10.40;99.90
19813;DHT22;10066;48.108;11.448;2022-09-27T04:47:47;10.40;99.90
19813;DHT22;10066;48.108;11.448;2022-09-27T04:50:15;10.40;99.90
19813;DHT22;10066;48.108;11.448;2022-09-27T04:52:43;10.40;99.90
19813;DHT22;10066;48.108;11.448;2022-09-27T04:55:10;10.40;99.90
19813;DHT22;10066;48.108;11.448;2022-09-27T04:57:37;10.30;99.90
19813;DHT22;10066;48.108;11.448;2022-09-27T05:00:05;10.30;99.90
19813;DHT22;10066;48.108;11.448;2022-09-27T05:02:33;10.30;99.90
19813;DHT22;10066;48.108;11.448;2022-09-27T05:05:02;10.30;99.90
19813;DHT22;10066;48.108;11.448;2022-09-27T05:07:33;10.30;99.90
19813;DHT22;10066;48.108;11.448;2022-09-27T05:10:00;10.30;99.90
19813;DHT22;10066;48.108;11.448;2022-09-27T05:12:27;10.30;99.90
19813;DHT22;10066;48.108;11.448;2022-09-27T05:14:54;10.30;99.90
19813;DHT22;10066;48.108;11.448;2022-09-27T05:17:21;10.40;99.90
19813;DHT22;10066;48.108;11.448;2022-09-27T05:19:49;10.40;99.90
19813;DHT22;10066;48.108;11.448;2022-09-27T05:22:18;10.40;99.90
19813;DHT22;10066;48.108;11.448;2022-09-27T05:24:45;10.40;99.90
19813;DHT22;10066;48.108;11.448;2022-09-27T05:27:13;10.40;99.90
19813;DHT22;10066;48.108;11.448;2022-09-27T05:29:45;10.40;99.90
19813;DHT22;10066;48.108;11.448;2022-09-27T05:32:14;10.40;99.90
19813;DHT22;10066;48.108;11.448;2022-09-27T05:34:43;10.40;99.90
19813;DHT22;10066;48.108;11.448;2022-09-27T05:37:10;10.40;99.90
19813;DHT22;10066;48.108;11.448;2022-09-27T05:39:40;10.40;99.90
19813;DHT22;10066;48.108;11.448;2022-09-27T05:42:07;10.40;99.90
19813;DHT22;10066;48.108;11.448;2022-09-27T05:44:35;10.40;99.90
19813;DHT22;10066;48.108;11.448;2022-09-27T05:47:04;10.40;99.90
19813;DHT22;10066;48.108;11.448;2022-09-27T05:49:32;10.40;99.90
19813;DHT22;10066;48.108;11.448;2022-09-27T05:52:00;10.40;99.90
19813;DHT22;10066;48.108;11.448;2022-09-27T05:54:27;10.40;99.90
19813;DHT22;10066;48.108;11.448;2022-09-27T05:56:58;10.50;99.90
19813;DHT22;10066;48.108;11.448;2022-09-27T05:59:26;10.50;99.90
19813;DHT22;10066;48.108;11.448;2022-09-27T06:01:53;10.40;99.90
19813;DHT22;10066;48.108;11.448;2022-09-27T06:04:22;10.40;99.90
19813;DHT22;10066;48.108;11.448;2022-09-27T06:06:51;10.40;99.90
19813;DHT22;10066;48.108;11.448;2022-09-27T06:09:18;10.40;99.90
19813;DHT22;10066;48.108;11.448;2022-09-27T06:11:45;10.40;99.90
19813;DHT22;10066;48.108;11.448;2022-09-27T06:14:14;10.40;99.90
19813;DHT22;10066;48.108;11.448;2022-09-27T06:16:41;10.50;99.90
19813;DHT22;10066;48.108;11.448;2022-09-27T06:19:11;10.50;99.90
19813;DHT22;10066;48.108;11.448;2022-09-27T06:21:38;10.50;99.90
19813;DHT22;10066;48.108;11.448;2022-09-27T06:24:06;10.50;99.90
19813;DHT22;10066;48.108;11.448;2022-09-27T06:26:33;10.50;99.90
19813;DHT22;10066;48.108;11.448;2022-09-27T06:29:01;10.50;99.90
19813;DHT22;10066;48.108;11.448;2022-09-27T06:31:30;10.50;99.90
19813;DHT22;10066;48.108;11.448;2022-09-27T06:33:57;10.50;99.90
19813;DHT22;10066;48.108;11.448;2022-09-27T06:36:25;10.50;99.90
19813;DHT22;10066;48.108;11.448;2022-09-27T06:38:52;10.50;99.90
19813;DHT22;10066;48.108;11.448;2022-09-27T06:41:19;10.50;99.90
19813;DHT22;10066;48.108;11.448;2022-09-27T06:43:47;10.60;99.90
19813;DHT22;10066;48.108;11.448;2022-09-27T06:46:14;10.60;99.90
19813;DHT22;10066;48.108;11.448;2022-09-27T06:48:45;10.60;99.90
19813;DHT22;10066;48.108;11.448;2022-09-27T06:51:12;10.60;99.90
19813;DHT22;10066;48.108;11.448;2022-09-27T06:53:41;10.60;99.90
19813;DHT22;10066;48.108;11.448;2022-09-27T06:56:19;10.60;99.90
19813;DHT22;10066;48.108;11.448;2022-09-27T06:58:55;10.50;99.90
19813;DHT22;10066;48.108;11.448;2022-09-27T07:01:40;10.60;99.90
19813;DHT22;10066;48.108;11.448;2022-09-27T07:04:13;10.50;99.90
19813;DHT22;10066;48.108;11.448;2022-09-27T07:06:41;10.60;99.90
19813;DHT22;10066;48.108;11.448;2022-09-27T07:09:15;10.70;99.90
19813;DHT22;10066;48.108;11.448;2022-09-27T07:11:42;10.70;99.90
19813;DHT22;10066;48.108;11.448;2022-09-27T07:14:10;10.90;99.90
19813;DHT22;10066;48.108;11.448;2022-09-27T07:16:42;11.00;99.90
19813;DHT22;10066;48.108;11.448;2022-09-27T07:19:13;11.20;99.90
19813;DHT22;10066;48.108;11.448;2022-09-27T07:21:40;11.30;99.90
19813;DHT22;10066;48.108;11.448;2022-09-27T07:24:08;11.50;99.90
19813;DHT22;10066;48.108;11.448;2022-09-27T07:26:35;11.60;99.90
19813;DHT22;10066;48.108;11.448;2022-09-27T07:29:04;11.60;99.90
19813;DHT22;10066;48.108;11.448;2022-09-27T07:31:33;11.70;99.90
19813;DHT22;10066;48.108;11.448;2022-09-27T07:34:00;11.70;99.90
19813;DHT22;10066;48.108;11.448;2022-09-27T07:36:29;11.70;99.90
19813;DHT22;10066;48.108;11.448;2022-09-27T07:38:59;11.80;99.90
19813;DHT22;10066;48.108;11.448;2022-09-27T07:41:26;11.80;99.90
19813;DHT22;10066;48.108;11.448;2022-09-27T07:43:53;11.90;99.90
19813;DHT22;10066;48.108;11.448;2022-09-27T07:46:21;11.90;99.90
19813;DHT22;10066;48.108;11.448;2022-09-27T07:48:50;11.90;99.90
19813;DHT22;10066;48.108;11.448;2022-09-27T07:51:18;12.00;99.90
19813;DHT22;10066;48.108;11.448;2022-09-27T07:53:47;12.00;99.90
19813;DHT22;10066;48.108;11.448;2022-09-27T07:56:14;12.10;99.90
19813;DHT22;10066;48.108;11.448;2022-09-27T07:58:41;12.10;99.90
19813;DHT22;10066;48.108;11.448;2022-09-27T08:01:12;12.10;99.90
19813;DHT22;10066;48.108;11.448;2022-09-27T08:03:39;12.10;99.90
19813;DHT22;10066;48.108;11.448;2022-09-27T08:06:06;12.10;99.90
19813;DHT22;10066;48.108;11.448;2022-09-27T08:08:34;12.00;99.90
19813;DHT22;10066;48.108;11.448;2022-09-27T08:11:09;11.90;99.90
19813;DHT22;10066;48.108;11.448;2022-09-27T08:13:39;12.00;99.90
19813;DHT22;10066;48.108;11.448;2022-09-27T08:16:06;12.00;99.90
19813;DHT22;10066;48.108;11.448;2022-09-27T08:18:35;12.00;99.90
19813;DHT22;10066;48.108;11.448;2022-09-27T08:21:03;12.00;99.90
19813;DHT22;10066;48.108;11.448;2022-09-27T08:23:30;11.80;99.90
19813;DHT22;10066;48.108;11.448;2022-09-27T08:25:58;11.60;99.90
19813;DHT22;10066;48.108;11.448;2022-09-27T08:28:27;11.30;99.90
19813;DHT22;10066;48.108;11.448;2022-09-27T08:30:56;10.80;99.90
19813;DHT22;10066;48.108;11.448;2022-09-27T08:33:24;10.50;99.90
19813;DHT22;10066;48.108;11.448;2022-09-27T08:35:52;10.30;99.90
19813;DHT22;10066;48.108;11.448;2022-09-27T08:38:19;10.00;99.90
19813;DHT22;10066;48.108;11.448;2022-09-27T08:40:52;10.00;99.90
19813;DHT22;10066;48.108;11.448;2022-09-27T08:43:32;9.80;99.90
19813;DHT22;10066;48.108;11.448;2022-09-27T08:46:13;9.80;99.90
19813;DHT22;10066;48.108;11.448;2022-09-27T08:48:48;9.80;99.90
19813;DHT22;10066;48.108;11.448;2022-09-27T08:51:20;9.80;99.90
19813;DHT22;10066;48.108;11.448;2022-09-27T08:53:53;9.80;99.90
19813;DHT22;10066;48.108;11.448;2022-09-27T08:56:23;9.80;99.90
19813;DHT22;10066;48.108;11.448;2022-09-27T08:58:57;9.90;99.90
19813;DHT22;10066;48.108;11.448;2022-09-27T09:01:28;10.00;99.90
19813;DHT22;10066;48.108;11.448;2022-09-27T09:03:58;10.10;99.90
19813;DHT22;10066;48.108;11.448;2022-09-27T09:06:34;10.10;99.90
19813;DHT22;10066;48.108;11.448;2022-09-27T09:09:13;10.10;99.90
19813;DHT22;10066;48.108;11.448;2022-09-27T09:11:50;10.20;99.90
19813;DHT22;10066;48.108;11.448;2022-09-27T09:14:55;10.40;99.90
19813;DHT22;10066;48.108;11.448;2022-09-27T09:17:36;10.50;99.90
19813;DHT22;10066;48.108;11.448;2022-09-27T09:20:18;10.60;99.90
19813;DHT22;10066;48.108;11.448;2022-09-27T09:23:06;10.70;99.90
19813;DHT22;10066;48.108;11.448;2022-09-27T09:25:46;10.80;99.90
19813;DHT22;10066;48.108;11.448;2022-09-27T09:28:24;10.90;99.90
19813;DHT22;10066;48.108;11.448;2022-09-27T09:31:02;11.00;99.90
19813;DHT22;10066;48.108;11.448;2022-09-27T09:33:36;11.00;99.90
19813;DHT22;10066;48.108;11.448;2022-09-27T09:36:12;11.00;99.90
19813;DHT22;10066;48.108;11.448;2022-09-27T09:38:49;11.10;99.90
19813;DHT22;10066;48.108;11.448;2022-09-27T09:41:21;11.10;99.90
19813;DHT22;10066;48.108;11.448;2022-09-27T09:43:54;11.10;99.90
19813;DHT22;10066;48.108;11.448;2022-09-27T09:46:29;11.20;99.90
19813;DHT22;10066;48.108;11.448;2022-09-27T09:49:00;11.40;99.90
19813;DHT22;10066;48.108;11.448;2022-09-27T09:51:37;11.40;99.90
19813;DHT22;10066;48.108;11.448;2022-09-27T09:54:11;11.50;99.90
19813;DHT22;10066;48.108;11.448;2022-09-27T09:56:43;11.50;99.90
19813;DHT22;10066;48.108;11.448;2022-09-27T09:59:16;11.60;99.90
19813;DHT22;10066;48.108;11.448;2022-09-27T10:01:46;11.60;99.90
19813;DHT22;10066;48.108;11.448;2022-09-27T10:04:18;11.60;99.90
19813;DHT22;10066;48.108;11.448;2022-09-27T10:06:46;11.50;99.90
19813;DHT22;10066;48.108;11.448;2022-09-27T10:09:15;11.50;99.90
19813;DHT22;10066;48.108;11.448;2022-09-27T10:11:44;11.50;99.90
19813;DHT22;10066;48.108;11.448;2022-09-27T10:14:15;11.50;99.90
19813;DHT22;10066;48.108;11.448;2022-09-27T10:16:47;11.50;99.90
19813;DHT22;10066;48.108;11.448;2022-09-27T10:19:18;11.50;99.90
19813;DHT22;10066;48.108;11.448;2022-09-27T10:21:48;11.40;99.90
19813;DHT22;10066;48.108;11.448;2022-09-27T10:24:17;11.40;99.90
19813;DHT22;10066;48.108;11.448;2022-09-27T10:26:46;11.40;99.90
19813;DHT22;10066;48.108;11.448;2022-09-27T10:29:23;11.30;99.90
19813;DHT22;10066;48.108;11.448;2022-09-27T10:31:55;11.30;99.90
19813;DHT22;10066;48.108;11.448;2022-09-27T10:34:31;11.30;99.90
19813;DHT22;10066;48.108;11.448;2022-09-27T10:37:05;11.30;99.90
19813;DHT22;10066;48.108;11.448;2022-09-27T10:39:33;11.30;99.90
19813;DHT22;10066;48.108;11.448;2022-09-27T10:42:02;11.40;99.90
19813;DHT22;10066;48.108;11.448;2022-09-27T10:44:30;11.30;99.90
19813;DHT22;10066;48.108;11.448;2022-09-27T10:47:04;11.40;99.90
19813;DHT22;10066;48.108;11.448;2022-09-27T10:49:34;11.40;99.90
19813;DHT22;10066;48.108;11.448;2022-09-27T10:52:04;11.40;99.90
19813;DHT22;10066;48.108;11.448;2022-09-27T10:54:34;11.30;99.90
19813;DHT22;10066;48.108;11.448;2022-09-27T10:57:04;11.10;99.90
19813;DHT22;10066;48.108;11.448;2022-09-27T10:59:34;11.00;99.90
19813;DHT22;10066;48.108;11.448;2022-09-27T11:02:04;10.90;99.90
19813;DHT22;10066;48.108;11.448;2022-09-27T11:04:34;10.90;99.90
19813;DHT22;10066;48.108;11.448;2022-09-27T11:07:15;10.80;99.90
19813;DHT22;10066;48.108;11.448;2022-09-27T11:09:47;10.80;99.90
19813;DHT22;10066;48.108;11.448;2022-09-27T11:12:15;10.90;99.90
19813;DHT22;10066;48.108;11.448;2022-09-27T11:14:51;11.00;99.90
19813;DHT22;10066;48.108;11.448;2022-09-27T11:17:26;11.10;99.90
19813;DHT22;10066;48.108;11.448;2022-09-27T11:20:13;11.10;99.90
19813;DHT22;10066;48.108;11.448;2022-09-27T11:25:56;11.50;99.90
19813;DHT22;10066;48.108;11.448;2022-09-27T11:28:38;11.70;99.90
19813;DHT22;10066;48.108;11.448;2022-09-27T11:31:15;11.80;99.90
19813;DHT22;10066;48.108;11.448;2022-09-27T11:33:58;11.90;99.90
19813;DHT22;10066;48.108;11.448;2022-09-27T11:36:37;11.90;99.90
19813;DHT22;10066;48.108;11.448;2022-09-27T11:39:15;11.80;99.90
19813;DHT22;10066;48.108;11.448;2022-09-27T11:41:57;11.60;99.90
19813;DHT22;10066;48.108;11.448;2022-09-27T11:44:43;11.50;99.90
19813;DHT22;10066;48.108;11.448;2022-09-27T11:47:17;11.40;99.90
19813;DHT22;10066;48.108;11.448;2022-09-27T11:50:34;9.40;99.90
19813;DHT22;10066;48.108;11.448;2022-09-27T11:55:48;11.30;99.90
19813;DHT22;10066;48.108;11.448;2022-09-27T11:58:26;11.60;99.90
19813;DHT22;10066;48.108;11.448;2022-09-27T12:01:05;11.80;99.90
19813;DHT22;10066;48.108;11.448;2022-09-27T12:04:17;11.90;99.90
19813;DHT22;10066;48.108;11.448;2022-09-27T12:06:53;12.00;99.90
19813;DHT22;10066;48.108;11.448;2022-09-27T12:09:26;12.00;99.90
19813;DHT22;10066;48.108;11.448;2022-09-27T12:11:58;12.00;99.90
19813;DHT22;10066;48.108;11.448;2022-09-27T12:14:33;11.90;99.90
19813;DHT22;10066;48.108;11.448;2022-09-27T12:17:04;11.80;99.90
19813;DHT22;10066;48.108;11.448;2022-09-27T12:19:35;11.80;99.90
19813;DHT22;10066;48.108;11.448;2022-09-27T12:22:10;11.80;99.90
19813;DHT22;10066;48.108;11.448;2022-09-27T12:24:39;11.80;99.90
19813;DHT22;10066;48.108;11.448;2022-09-27T12:27:08;11.80;99.90
19813;DHT22;10066;48.108;11.448;2022-09-27T12:29:41;11.80;99.90
19813;DHT22;10066;48.108;11.448;2022-09-27T12:32:14;11.90;99.90
19813;DHT22;10066;48.108;11.448;2022-09-27T12:34:46;11.90;99.90
19813;DHT22;10066;48.108;11.448;2022-09-27T12:37:21;11.60;99.90
19813;DHT22;10066;48.108;11.448;2022-09-27T12:39:55;11.20;99.90
19813;DHT22;10066;48.108;11.448;2022-09-27T12:42:28;11.00;99.90
19813;DHT22;10066;48.108;11.448;2022-09-27T12:44:58;11.00;99.90
19813;DHT22;10066;48.108;11.448;2022-09-27T12:47:52;11.20;99.90
19813;DHT22;10066;48.108;11.448;2022-09-27T12:50:27;11.40;99.90
19813;DHT22;10066;48.108;11.448;2022-09-27T12:53:02;11.50;99.90
19813;DHT22;10066;48.108;11.448;2022-09-27T12:55:55;11.70;99.90
19813;DHT22;10066;48.108;11.448;2022-09-27T12:58:46;11.90;99.90
19813;DHT22;10066;48.108;11.448;2022-09-27T13:01:25;12.00;99.90
19813;DHT22;10066;48.108;11.448;2022-09-27T13:04:14;12.20;99.90
19813;DHT22;10066;48.108;11.448;2022-09-27T13:06:55;12.40;99.90
19813;DHT22;10066;48.108;11.448;2022-09-27T13:09:44;12.60;99.90
19813;DHT22;10066;48.108;11.448;2022-09-27T13:12:16;12.80;99.90
19813;DHT22;10066;48.108;11.448;2022-09-27T13:14:53;13.00;99.90
19813;DHT22;10066;48.108;11.448;2022-09-27T13:17:53;13.10;99.90
19813;DHT22;10066;48.108;11.448;2022-09-27T13:20:40;13.10;99.90
19813;DHT22;10066;48.108;11.448;2022-09-27T13:32:21;13.10;99.90
19813;DHT22;10066;48.108;11.448;2022-09-27T13:34:53;13.00;99.90
19813;DHT22;10066;48.108;11.448;2022-09-27T13:37:46;12.90;99.90
19813;DHT22;10066;48.108;11.448;2022-09-27T13:40:30;12.80;99.90
19813;DHT22;10066;48.108;11.448;2022-09-27T13:43:30;12.60;99.90
19813;DHT22;10066;48.108;11.448;2022-09-27T13:46:01;12.60;99.90
19813;DHT22;10066;48.108;11.448;2022-09-27T13:48:37;12.60;99.90
19813;DHT22;10066;48.108;11.448;2022-09-27T13:51:16;12.70;99.90
19813;DHT22;10066;48.108;11.448;2022-09-27T13:53:55;12.70;99.90
19813;DHT22;10066;48.108;11.448;2022-09-27T13:56:52;12.70;99.90
19813;DHT22;10066;48.108;11.448;2022-09-27T13:59:25;12.60;99.90
19813;DHT22;10066;48.108;11.448;2022-09-27T14:02:01;12.50;99.90
19813;DHT22;10066;48.108;11.448;2022-09-27T14:04:40;12.50;99.90
19813;DHT22;10066;48.108;11.448;2022-09-27T14:07:13;12.40;99.90
19813;DHT22;10066;48.108;11.448;2022-09-27T14:09:45;12.40;99.90
19813;DHT22;10066;48.108;11.448;2022-09-27T14:12:17;12.40;99.90
19813;DHT22;10066;48.108;11.448;2022-09-27T14:14:47;12.40;99.90
19813;DHT22;10066;48.108;11.448;2022-09-27T14:17:15;12.30;99.90
19813;DHT22;10066;48.108;11.448;2022-09-27T14:19:50;12.30;99.90
19813;DHT22;10066;48.108;11.448;2022-09-27T14:22:24;12.20;99.90
19813;DHT22;10066;48.108;11.448;2022-09-27T14:24:52;12.20;99.90
19813;DHT22;10066;48.108;11.448;2022-09-27T14:27:21;12.10;99.90
19813;DHT22;10066;48.108;11.448;2022-09-27T14:29:54;12.00;99.90
19813;DHT22;10066;48.108;11.448;2022-09-27T14:32:23;11.90;99.90
19813;DHT22;10066;48.108;11.448;2022-09-27T14:35:06;11.90;99.90
19813;DHT22;10066;48.108;11.448;2022-09-27T14:37:56;11.90;99.90
19813;DHT22;10066;48.108;11.448;2022-09-27T14:40:22;12.00;99.90
19813;DHT22;10066;48.108;11.448;2022-09-27T14:42:53;11.90;99.90
19813;DHT22;10066;48.108;11.448;2022-09-27T14:45:27;11.80;99.90
19813;DHT22;10066;48.108;11.448;2022-09-27T14:47:59;11.70;99.90
19813;DHT22;10066;48.108;11.448;2022-09-27T14:50:27;11.50;99.90
19813;DHT22;10066;48.108;11.448;2022-09-27T14:52:55;11.40;99.90
19813;DHT22;10066;48.108;11.448;2022-09-27T14:55:26;11.20;99.90
19813;DHT22;10066;48.108;11.448;2022-09-27T14:57:55;11.20;99.90
19813;DHT22;10066;48.108;11.448;2022-09-27T15:00:27;11.10;99.90
19813;DHT22;10066;48.108;11.448;2022-09-27T15:02:56;11.10;99.90
19813;DHT22;10066;48.108;11.448;2022-09-27T15:05:26;11.10;99.90
19813;DHT22;10066;48.108;11.448;2022-09-27T15:07:54;11.10;99.90
19813;DHT22;10066;48.108;11.448;2022-09-27T15:12:54;11.20;99.90
19813;DHT22;10066;48.108;11.448;2022-09-27T15:15:28;11.20;99.90
19813;DHT22;10066;48.108;11.448;2022-09-27T15:17:57;11.20;99.90
19813;DHT22;10066;48.108;11.448;2022-09-27T15:20:26;11.30;99.90
19813;DHT22;10066;48.108;11.448;2022-09-27T15:22:56;11.30;99.90
19813;DHT22;10066;48.108;11.448;2022-09-27T15:25:26;11.30;99.90
19813;DHT22;10066;48.108;11.448;2022-09-27T15:28:00;11.30;99.90
19813;DHT22;10066;48.108;11.448;2022-09-27T15:30:35;11.20;99.90
19813;DHT22;10066;48.108;11.448;2022-09-27T15:33:03;11.20;99.90
19813;DHT22;10066;48.108;11.448;2022-09-27T15:35:33;11.20;99.90
19813;DHT22;10066;48.108;11.448;2022-09-27T15:38:24;11.20;99.90
19813;DHT22;10066;48.108;11.448;2022-09-27T15:41:04;11.20;99.90
19813;DHT22;10066;48.108;11.448;2022-09-27T15:43:33;11.30;99.90
19813;DHT22;10066;48.108;11.448;2022-09-27T15:46:07;11.30;99.90
19813;DHT22;10066;48.108;11.448;2022-09-27T15:49:18;11.30;99.90
19813;DHT22;10066;48.108;11.448;2022-09-27T15:51:48;11.40;99.90
19813;DHT22;10066;48.108;11.448;2022-09-27T15:54:17;11.40;99.90
19813;DHT22;10066;48.108;11.448;2022-09-27T15:56:44;11.50;99.90
19813;DHT22;10066;48.108;11.448;2022-09-27T15:59:17;11.50;99.90
19813;DHT22;10066;48.108;11.448;2022-09-27T16:01:48;11.50;99.90
19813;DHT22;10066;48.108;11.448;2022-09-27T16:04:20;11.40;99.90
19813;DHT22;10066;48.108;11.448;2022-09-27T16:06:49;11.40;99.90
19813;DHT22;10066;48.108;11.448;2022-09-27T16:09:18;11.40;99.90
19813;DHT22;10066;48.108;11.448;2022-09-27T16:11:46;11.40;99.90
19813;DHT22;10066;48.108;11.448;2022-09-27T16:14:14;11.40;99.90